Imperial, NE

2:22 PM MST on February 01, 2015 (GMT -0700)
Imperial Municipal | Change Station
CLOSE
Current Station
Airport
Location: Imperial,
Elevation: 3274 ft
Nearby Weather Stations

Elev 3274 ft 40.51 °N, 101.62 °W | Updated 29 minutes ago

Partly Cloudy
Partly Cloudy
14 °F
Feels Like -6 °F
N
28
Wind Variable Wind from NNW
Gusts 37 mph

Today
High -- | Low -- °F
--% Chance of Precip.
Yesterday
High -- | Low -- °F
Precip. -- in
6:56 AM 5:04 PM
Waxing Gibbous, 96% visible
Pressure 30.41 in
Visibility 10.0 miles
Clouds Few 2200 ft
Windchill -6 °F
Dew Point 3 °F
Humidity 62%
Rainfall 0.00 in
Snow Depth Not available.
UV 2 out of 12
Pollen .10 out of 12
Air Quality Not available.
Flu Activity Not available.
METAR KIML 012053Z AUTO 34024G32KT 10SM FEW022 M10/M16 A3025 RMK AO2 PK WND 35034/2002 SLP296 T11001161 58007

More Conditions Fewer Conditions

Pressure 30.41 in
Visibility 10.0 miles
Clouds Few 2200 ft
Windchill -6 °F
Dew Point 3 °F
Humidity 62%
Rainfall 0.00 in
Snow Depth Not available.
UV 2 out of 12
Pollen .10 out of 12
Air Quality Not available.
Flu Activity Not available.
METAR KIML 012053Z AUTO 34024G32KT 10SM FEW022 M10/M16 A3025 RMK AO2 PK WND 35034/2002 SLP296 T11001161 58007

More Conditions Fewer Conditions

10-Day Weather Forecast

Almanac

Astronomy

Feb. 01, 2015 Rise Set
Actual Time
Civil Twilight
Nautical Twilight
Astronomical Twilight
Moon
Length of Visible Light
Length of Day
Tomorrow will be .
, % of the Moon is Illuminated

Today's Extremes

State Highs State Lows

Community

WunderPhotos

Upload Photos

1,792,548 photos uploaded!

WunderBlogs® & News

Nearby

Air Quality

  Air Quality AQ Index Pollutant
Not available.

Snow Depth

Station Depth Elevation

Earthquake Activity

City Distance Mag. Time & Date
Minimum magnitude displayed is 2.5.

Coastal Water Temperatures

Place Temperature

Nearby Weather Stations